Flight Track Log - Related Links

Times and Time Zones

All times are in EDT time to prevent confusion due to time zone crossing. See the N450S flight status page for this flight to view local times or setup timezone preferences in your user account.


Time Position Orientation Groundspeed Altitude Reporting Facility
EDT Latitude Longitude Course Direction KTS MPH feet Rate Location/Type
Sun 07:51:42 AM 41.4256 -82.6961 188° South 153 176 1,900  Level Cleveland Center
Sun 07:52:00 AM 41.4131 -82.6983 188° South 158 182 2,600 2,051 Climbing Cleveland Center
Sun 07:53:01 AM 41.3736 -82.6917 173° South 143 165 4,600 1,966 Climbing Cleveland Center
Sun 07:53:59 AM 41.3319 -82.6819 170° South 170 196 6,500 1,881 Climbing Cleveland Center
Sun 07:54:59 AM 41.2883 -82.6806 179° South 170 196 8,300 1,800 Climbing Cleveland Center
Sun 07:55:59 AM 41.2383 -82.6761 176° South 170 196 10,100 1,700 Climbing Cleveland Center
Sun 07:56:59 AM 41.1883 -82.6719 176° South 180 207 11,700 1,650 Climbing Cleveland Center
Sun 07:57:59 AM 41.1319 -82.6700 179° South 187 215 13,400 1,700 Climbing Cleveland Center
Sun 07:58:59 AM 41.0758 -82.6628 174° South 199 229 15,100 1,650 Climbing Cleveland Center
Sun 07:59:59 AM 41.0197 -82.6581 176° South 199 229 16,700 1,519 Climbing Cleveland Center
Sun 08:01:33 AM 40.9347 -82.6497 176° South 207 238 19,000 1,471 Climbing Indianapolis Center
Sun 08:02:34 AM 40.8803 -82.6450 176° South 198 228 20,500 1,415 Climbing Indianapolis Center
Sun 08:03:36 AM 40.8272 -82.6414 177° South 191 220 21,900 1,220 Climbing Indianapolis Center
Sun 08:04:37 AM 40.7719 -82.6375 177° South 196 226 23,000 1,033 Climbing Indianapolis Center
Sun 08:05:38 AM 40.7158 -82.6328 176° South 201 231 24,000 492 Climbing Indianapolis Center
Sun 08:06:39 AM 40.6419 -82.6275 177° South 224 258 24,000  Level Indianapolis Center
Sun 08:07:40 AM 40.5681 -82.6189 175° South 253 291 24,000  Level Indianapolis Center
Sun 08:08:41 AM 40.4914 -82.6136 177° South 267 307 24,000  Level Indianapolis Center
Sun 08:09:42 AM 40.4142 -82.6075 177° South 275 316 24,000  Level Indianapolis Center
Sun 08:10:43 AM 40.3369 -82.6022 177° South 276 318 24,000  Level Indianapolis Center
Sun 08:11:45 AM 40.2606 -82.5950 176° South 274 315 24,000  Level Indianapolis Center
Sun 08:12:46 AM 40.1808 -82.5914 178° South 276 318 24,000  Level Indianapolis Center
Sun 08:13:47 AM 40.1011 -82.5833 176° South 281 323 24,000  Level Indianapolis Center
Sun 08:14:48 AM 40.0222 -82.5772 177° South 281 323 24,000  Level Indianapolis Center
Sun 08:15:49 AM 39.9442 -82.5706 176° South 279 321 24,000  Level Indianapolis Center
Sun 08:16:51 AM 39.8664 -82.5639 176° South 276 318 24,000  Level Indianapolis Center
Sun 08:17:52 AM 39.7881 -82.5572 176° South 278 320 24,000  Level Indianapolis Center
Sun 08:18:53 AM 39.7114 -82.5508 176° South 274 315 24,000  Level Indianapolis Center
Sun 08:19:54 AM 39.6314 -82.5447 177° South 282 325 24,000  Level Indianapolis Center
Sun 08:20:55 AM 39.5525 -82.5369 176° South 282 325 24,000  Level Indianapolis Center
Sun 08:21:57 AM 39.4733 -82.5314 177° South 282 325 24,000  Level Indianapolis Center
Sun 08:22:58 AM 39.3942 -82.5242 176° South 284 327 24,000  Level Indianapolis Center
Sun 08:23:59 AM 39.3156 -82.5178 176° South 282 325 24,000  Level Indianapolis Center
Sun 08:25:00 AM 39.2347 -82.5103 176° South 287 330 24,000  Level Indianapolis Center
Sun 08:26:01 AM 39.1489 -82.5031 176° South 285 328 24,000  Level Indianapolis Center
Sun 08:27:02 AM 39.0686 -82.4961 176° South 289 333 24,000  Level Indianapolis Center
Sun 08:28:04 AM 38.9886 -82.4906 177° South 288 331 24,000  Level Indianapolis Center
Sun 08:29:05 AM 38.9089 -82.4836 176° South 288 331 24,000  Level Indianapolis Center
Sun 08:30:06 AM 38.8303 -82.4772 176° South 284 327 24,000  Level Indianapolis Center
Sun 08:31:07 AM 38.7494 -82.4703 176° South 289 333 24,000  Level Indianapolis Center
Sun 08:32:08 AM 38.6697 -82.4636 176° South 287 330 24,000  Level Indianapolis Center
Sun 08:33:09 AM 38.5908 -82.4581 177° South 285 328 24,000  Level Indianapolis Center
Sun 08:34:11 AM 38.4953 -82.4497 176° South 286 329 24,000  Level Indianapolis Center
Sun 08:35:12 AM 38.4175 -82.4431 176° South 282 325 24,000  Level Indianapolis Center
Sun 08:36:13 AM 38.3389 -82.4364 176° South 283 326 24,000  Level Indianapolis Center
Sun 08:37:14 AM 38.2614 -82.4317 177° South 280 322 24,000  Level Indianapolis Center
Sun 08:38:15 AM 38.1833 -82.4244 176° South 278 320 24,000  Level Indianapolis Center
Sun 08:39:17 AM 38.1050 -82.4178 176° South 279 321 24,000  Level Indianapolis Center
Sun 08:40:18 AM 38.0281 -82.4125 177° South 276 318 24,000  Level Indianapolis Center
Sun 08:41:19 AM 37.9511 -82.4067 177° South 276 318 24,000  Level Indianapolis Center
Sun 08:42:20 AM 37.8603 -82.3992 176° South 277 319 24,000  Level Indianapolis Center
Sun 08:43:22 AM 37.7828 -82.3936 177° South 278 320 24,000  Level Indianapolis Center
Sun 08:44:23 AM 37.7047 -82.3867 176° South 281 323 24,000  Level Indianapolis Center
Sun 08:45:24 AM 37.6264 -82.3811 177° South 280 322 24,000  Level Indianapolis Center
Sun 08:46:26 AM 37.5481 -82.3747 176° South 280 322 24,000  Level Indianapolis Center
Sun 08:47:27 AM 37.4722 -82.3692 177° South 276 318 24,000  Level Indianapolis Center
Sun 08:48:28 AM 37.3953 -82.3622 176° South 276 318 24,000  Level Indianapolis Center
Sun 08:49:29 AM 37.3189 -82.3572 177° South 273 314 24,000  Level Indianapolis Center
Sun 08:50:31 AM 37.2414 -82.3519 177° South 276 318 24,000  Level Indianapolis Center
Sun 08:51:32 AM 37.1644 -82.3450 176° South 276 318 24,000  Level Indianapolis Center
Sun 08:52:15 AM 37.0997 -82.3422 178° South 289 333 24,000  Level Atlanta Center
Sun 08:53:15 AM 37.0244 -82.3358 176° South 283 326 24,000  Level Atlanta Center
Sun 08:54:15 AM 36.9494 -82.3297 176° South 277 319 24,000  Level Atlanta Center
Sun 08:55:15 AM 36.8742 -82.3211 175° South 277 319 24,000  Level Atlanta Center
Sun 08:56:15 AM 36.8053 -82.3200 179° South 272 313 24,000  Level Atlanta Center
Sun 08:57:15 AM 36.7303 -82.3136 176° South 272 313 24,000  Level Atlanta Center
Sun 08:58:15 AM 36.6550 -82.3075 176° South 272 313 24,000  Level Atlanta Center
Sun 08:59:15 AM 36.5778 -82.2989 175° South 272 313 24,000  Level Atlanta Center
Sun 09:00:15 AM 36.5006 -82.2956 178° South 272 313 24,000  Level Atlanta Center
Sun 09:01:15 AM 36.4253 -82.2894 176° South 272 313 24,000  Level Atlanta Center
Sun 09:02:15 AM 36.3503 -82.2833 176° South 272 313 24,000  Level Atlanta Center
Sun 09:03:15 AM 36.2731 -82.2772 176° South 272 313 24,000  Level Atlanta Center
Sun 09:04:15 AM 36.1958 -82.2711 176° South 277 319 24,000  Level Atlanta Center
Sun 09:05:15 AM 36.1228 -82.2678 178° South 272 313 24,000  Level Atlanta Center
Sun 09:06:15 AM 36.0475 -82.2617 176° South 272 313 24,000  Level Atlanta Center
Sun 09:07:15 AM 35.9722 -82.2556 176° South 272 313 24,000  Level Atlanta Center
Sun 09:08:15 AM 35.8886 -82.2472 175° South 272 313 24,000  Level Atlanta Center
Sun 09:09:15 AM 35.8136 -82.2411 176° South 272 313 24,000  Level Atlanta Center
Sun 09:10:15 AM 35.7447 -82.2400 179° South 272 313 24,000  Level Atlanta Center
Sun 09:11:15 AM 35.6694 -82.2339 176° South 272 313 24,000  Level Atlanta Center
Sun 09:12:15 AM 35.5944 -82.2281 176° South 272 313 24,000  Level Atlanta Center
Sun 09:13:15 AM 35.5192 -82.2219 176° South 272 313 24,000  Level Atlanta Center
Sun 09:14:15 AM 35.4356 -82.2161 177° South 277 319 24,000  Level Atlanta Center
Sun 09:15:15 AM 35.3625 -82.2103 176° South 272 313 24,000  Level Atlanta Center
Sun 09:16:15 AM 35.2872 -82.2042 176° South 272 313 24,000  Level Atlanta Center
Sun 09:17:15 AM 35.2119 -82.1983 176° South 279 321 24,000  Level Atlanta Center
Sun 09:18:15 AM 35.1369 -82.1922 176° South 274 315 24,000  Level Atlanta Center
Sun 09:19:15 AM 35.0617 -82.1864 176° South 274 315 24,000  Level Atlanta Center
Sun 09:20:15 AM 34.9867 -82.1856 179° South 274 315 24,000  Level Atlanta Center
Sun 09:21:15 AM 34.9092 -82.1772 175° South 279 321 24,000  Level Atlanta Center
Sun 09:22:15 AM 34.8361 -82.1711 176° South 279 321 24,000  Level Atlanta Center
Sun 09:23:15 AM 34.7631 -82.1653 176° South 273 314 24,000  Level Atlanta Center
Sun 09:24:15 AM 34.6878 -82.1594 176° South 273 314 24,000  Level Atlanta Center
Sun 09:25:15 AM 34.6106 -82.1533 176° South 273 314 24,000  Level Atlanta Center
Sun 09:26:15 AM 34.5372 -82.1500 178° South 273 314 24,000  Level Atlanta Center
Sun 09:27:15 AM 34.4619 -82.1417 175° South 273 314 24,000  Level Atlanta Center
Sun 09:28:15 AM 34.3889 -82.1358 176° South 273 314 24,000  Level Atlanta Center
Sun 09:29:15 AM 34.3158 -82.1325 178° South 273 314 24,000  Level Atlanta Center
Sun 09:30:15 AM 34.2447 -82.1264 176° South 278 320 24,000  Level Atlanta Center
Sun 09:31:15 AM 34.1717 -82.1206 176° South 273 314 24,000  Level Atlanta Center
Sun 09:32:15 AM 34.0944 -82.1172 178° South 273 314 24,000  Level Atlanta Center
Sun 09:33:15 AM 34.0211 -82.1089 175° South 273 314 24,000  Level Atlanta Center
Sun 09:34:15 AM 33.9439 -82.1056 178° South 273 314 24,000  Level Atlanta Center
Sun 09:35:15 AM 33.8686 -82.0972 175° South 273 314 24,000  Level Atlanta Center
Sun 09:36:15 AM 33.7872 -82.0917 177° South 273 314 24,000  Level Atlanta Center
Sun 09:37:15 AM 33.7142 -82.0883 178° South 273 314 24,000  Level Atlanta Center
Sun 09:38:15 AM 33.6389 -82.0825 176° South 273 314 24,000  Level Atlanta Center
Sun 09:39:15 AM 33.5656 -82.0767 176° South 273 314 24,000  Level Atlanta Center
Sun 09:40:15 AM 33.4925 -82.0733 178° South 273 314 24,000  Level Atlanta Center
Sun 09:41:15 AM 33.4214 -82.0675 176° South 273 314 24,000  Level Atlanta Center
Sun 09:42:15 AM 33.3464 -82.0619 176° South 273 314 24,000  Level Atlanta Center
Sun 09:43:15 AM 33.2731 -82.0561 176° South 273 314 24,000  Level Atlanta Center
Sun 09:44:15 AM 33.2000 -82.0528 178° South 273 314 24,000  Level Atlanta Center
Sun 09:45:15 AM 33.1289 -82.0469 176° South 268 308 24,000  Level Atlanta Center
Sun 09:47:08 AM 33.0028 -82.0356 176° South 270 311 24,000  Level Jacksonville Center
Sun 09:48:08 AM 32.9297 -82.0336 179° South 270 311 24,000  Level Jacksonville Center
Sun 09:49:08 AM 32.8608 -82.0269 175° South 265 305 24,000  Level Jacksonville Center
Sun 09:50:07 AM 32.7856 -82.0203 176° South 258 297 24,000  Level Jacksonville Center
Sun 09:51:08 AM 32.7147 -82.0186 179° South 253 291 24,000  Level Jacksonville Center
Sun 09:52:08 AM 32.6436 -82.0119 175° South 253 291 24,000  Level Jacksonville Center
Sun 09:53:07 AM 32.5725 -82.0050 175° South 253 291 24,000  Level Jacksonville Center
Sun 09:54:08 AM 32.5078 -82.0033 179° South 253 291 24,000  Level Jacksonville Center
Sun 09:55:08 AM 32.4286 -81.9967 176° South 253 291 24,000  Level Jacksonville Center
Sun 09:56:08 AM 32.3594 -81.9925 177° South 253 291 24,000  Level Jacksonville Center
Sun 09:57:08 AM 32.2947 -81.9906 179° South 253 291 24,000  Level Jacksonville Center
Sun 09:58:08 AM 32.2197 -81.9839 176° South 253 291 24,000  Level Jacksonville Center
Sun 09:59:08 AM 32.1569 -81.9797 177° South 253 291 24,000  Level Jacksonville Center
Sun 10:00:08 AM 32.0817 -81.9731 176° South 253 291 24,000  Level Jacksonville Center
Sun 10:01:08 AM 32.0150 -81.9689 177° South 253 291 24,000  Level Jacksonville Center
Sun 10:02:08 AM 31.9522 -81.9694 180° South 253 291 24,000  Level Jacksonville Center
Sun 10:03:08 AM 31.8750 -81.9753 184° South 253 291 24,000  Level Jacksonville Center
Sun 10:04:08 AM 31.8147 -81.9806 184° South 253 291 24,000  Level Jacksonville Center
Sun 10:05:08 AM 31.7394 -81.9886 185° South 253 291 24,000  Level Jacksonville Center
Sun 10:06:08 AM 31.6728 -81.9942 184° South 253 291 24,000  Level Jacksonville Center
Sun 10:07:08 AM 31.6122 -82.0022 186° South 248 285 24,000  Level Jacksonville Center
Sun 10:08:08 AM 31.5372 -82.0078 184° South 248 285 24,000  Level Jacksonville Center
Sun 10:09:08 AM 31.4683 -82.0158 186° South 260 299 24,000  Level Jacksonville Center
Sun 10:10:08 AM 31.4014 -82.0211 184° South 260 299 24,000  Level Jacksonville Center
Sun 10:11:08 AM 31.3283 -82.0292 185° South 260 299 24,000  Level Jacksonville Center
Sun 10:12:08 AM 31.2597 -82.0369 186° South 260 299 24,000  Level Jacksonville Center
Sun 10:13:08 AM 31.1886 -82.0425 184° South 260 299 24,000  Level Jacksonville Center
Sun 10:14:08 AM 31.1136 -82.0506 185° South 260 299 24,000  Level Jacksonville Center
Sun 10:15:08 AM 31.0425 -82.0561 184° South 260 299 24,000  Level Jacksonville Center
Sun 10:16:08 AM 30.9717 -82.0639 185° South 255 293 24,000  Level Jacksonville Center
Sun 10:17:08 AM 30.8986 -82.0694 184° South 255 293 24,000  Level Jacksonville Center
Sun 10:18:08 AM 30.8275 -82.0750 184° South 260 299 24,000  Level Jacksonville Center
Sun 10:19:08 AM 30.7547 -82.0803 184° South 260 299 24,000  Level Jacksonville Center
Sun 10:20:08 AM 30.6878 -82.0881 186° South 254 292 24,000  Level Jacksonville Center
Sun 10:21:08 AM 30.6189 -82.0936 184° South 254 292 24,000  Level Jacksonville Center
Sun 10:22:08 AM 30.5481 -82.0967 182° South 254 292 24,000  Level Jacksonville Center
Sun 10:23:08 AM 30.4769 -82.1044 185° South 254 292 24,000  Level Jacksonville Center
Sun 10:24:08 AM 30.4039 -82.1097 184° South 254 292 24,000  Level Jacksonville Center
Sun 10:25:08 AM 30.3353 -82.1175 186° South 254 292 24,000  Level Jacksonville Center
Sun 10:26:08 AM 30.2600 -82.1256 185° South 259 298 24,000  Level Jacksonville Center
Sun 10:27:08 AM 30.1892 -82.1283 182° South 259 298 24,000  Level Jacksonville Center
Sun 10:28:08 AM 30.1158 -82.1169 172° South 259 298 24,000  Level Jacksonville Center
Sun 10:29:08 AM 30.0447 -82.1008 169° South 259 298 24,000  Level Jacksonville Center
Sun 10:30:08 AM 29.9614 -82.0894 173° South 264 304 24,000  Level Jacksonville Center
Sun 10:31:08 AM 29.8881 -82.0733 169° South 269 310 24,000  Level Jacksonville Center
Sun 10:32:08 AM 29.8128 -82.0594 171° South 275 316 24,000  Level Jacksonville Center
Sun 10:33:08 AM 29.7481 -82.0433 168° South 275 316 24,000  Level Jacksonville Center
Sun 10:34:08 AM 29.6664 -82.0297 172° South 275 316 24,000  Level Jacksonville Center
Sun 10:35:08 AM 29.5933 -82.0161 171° South 275 316 24,000  Level Jacksonville Center
Sun 10:36:08 AM 29.5203 -82.0000 169° South 275 316 24,000  Level Jacksonville Center
Sun 10:37:08 AM 29.4450 -81.9886 172° South 275 316 24,000 -100 Level Jacksonville Center
Sun 10:38:08 AM 29.3739 -81.9728 169° South 275 316 23,800 -350 Descending Jacksonville Center
Sun 10:39:08 AM 29.2964 -81.9567 170° South 280 322 23,300 -400 Descending Jacksonville Center
Sun 10:40:08 AM 29.2211 -81.9433 171° South 280 322 23,000 -150 Descending Jacksonville Center
Sun 10:41:08 AM 29.1500 -81.9247 167° South 280 322 23,000  Level Jacksonville Center
Sun 10:42:08 AM 29.0769 -81.9089 169° South 280 322 23,000  Level Jacksonville Center
Sun 10:43:08 AM 29.0017 -81.8978 173° South 275 316 23,000  Level Jacksonville Center
Sun 10:44:08 AM 28.9203 -81.8819 170° South 275 316 23,000  Level Jacksonville Center
Sun 10:45:08 AM 28.8450 -81.8639 168° South 275 316 23,000  Level Jacksonville Center
Sun 10:46:08 AM 28.7697 -81.8528 173° South 275 316 23,000  Level Jacksonville Center
Sun 10:47:08 AM 28.6964 -81.8347 168° South 275 316 23,000  Level Jacksonville Center
Sun 10:48:08 AM 28.6358 -81.8233 171° South 275 316 23,000  Level Jacksonville Center
Sun 10:49:08 AM 28.5628 -81.8125 173° South 270 311 23,000  Level Jacksonville Center
Sun 10:51:19 AM 28.4003 -81.7650 166° South 252 290 23,000  Level Miami Center
Sun 10:52:19 AM 28.3342 -81.7481 167° South 258 297 23,000  Level Miami Center
Sun 10:53:19 AM 28.2619 -81.7261 165° South 258 297 23,000 -200 Level Miami Center
Sun 10:54:19 AM 28.1894 -81.7089 168° South 258 297 22,600 -650 Descending Miami Center
Sun 10:55:19 AM 28.1086 -81.6936 171° South 277 319 21,700 -950 Descending Miami Center
Sun 10:56:19 AM 28.0300 -81.6783 170° South 288 331 20,700 -950 Descending Miami Center
Sun 10:57:19 AM 27.9469 -81.6608 169° South 310 357 19,800 -950 Descending Miami Center
Sun 10:58:19 AM 27.8681 -81.6481 172° South 310 357 18,800 -1,050 Descending Miami Center
Sun 10:59:19 AM 27.7894 -81.6308 169° South 310 357 17,700 -1,050 Descending Miami Center
Sun 11:00:19 AM 27.7125 -81.6181 172° South 298 343 16,700 -1,000 Descending Miami Center
Sun 11:01:19 AM 27.6339 -81.6031 170° South 298 343 15,700 -1,000 Descending Miami Center
Sun 11:02:19 AM 27.5592 -81.5861 169° South 286 329 14,700 -1,100 Descending Miami Center
Sun 11:03:19 AM 27.4867 -81.5736 171° South 280 322 13,500 -1,250 Descending Miami Center
Sun 11:04:19 AM 27.4119 -81.5589 170° South 274 315 12,200 -1,250 Descending Miami Center
Sun 11:05:19 AM 27.3372 -81.5464 172° South 274 315 11,000 -1,600 Descending Miami Center
Sun 11:06:19 AM 27.2647 -81.5319 170° South 274 315 9,000 -1,000 Descending Miami Center
Sun 11:07:19 AM 27.1942 -81.5175 170° South 274 315 9,000  Level Miami Center

Login

Don't have an account? Register now (free) for customized features, flight alerts, and more!